createdAt,value
2019-01-14T00:00:56.541Z,97329.61
2019-01-14T00:03:37.876Z,97243.81
2019-01-14T00:06:25.102Z,97487.77
2019-01-14T00:09:05.456Z,97292.43
2019-01-14T00:11:52.249Z,97454.01
2019-01-14T00:14:32.161Z,97475.98
2019-01-14T00:17:18.383Z,97477.97
2019-01-14T00:19:59.577Z,97403.00
2019-01-14T00:22:39.372Z,97357.91
2019-01-14T00:25:25.589Z,97236.34
2019-01-14T00:28:05.704Z,97470.17
2019-01-14T00:30:52.045Z,97276.01
2019-01-14T00:33:31.897Z,97462.89
2019-01-14T00:36:18.346Z,97463.05
2019-01-14T00:38:58.100Z,97278.56
2019-01-14T00:41:44.308Z,97466.41
2019-01-14T00:44:25.641Z,97464.29
2019-01-14T00:47:12.112Z,97465.34
2019-01-14T00:49:52.419Z,97478.69
2019-01-14T00:52:38.636Z,97253.24
2019-01-14T00:55:19.497Z,97487.95
2019-01-14T00:58:00.000Z,97310.81
2019-01-14T01:00:46.219Z,97518.85
2019-01-14T01:03:25.722Z,97399.56
2019-01-14T01:06:13.204Z,97493.05
2019-01-14T01:08:53.092Z,97445.94
2019-01-14T01:11:39.675Z,97436.47
2019-01-14T01:14:20.304Z,97506.40
2019-01-14T01:17:07.566Z,97424.98
2019-01-14T01:19:51.201Z,97555.34
2019-01-14T01:22:38.307Z,97583.99
2019-01-14T01:25:18.744Z,97567.07
2019-01-14T01:28:05.171Z,97551.35
2019-01-14T01:30:44.872Z,97580.65
2019-01-14T01:33:31.376Z,97437.02
2019-01-14T01:36:11.295Z,97614.75
2019-01-14T01:38:57.496Z,97598.84
2019-01-14T01:41:37.240Z,97602.65
2019-01-14T01:44:23.677Z,97595.61
2019-01-14T01:47:04.459Z,97389.06
2019-01-14T01:49:50.682Z,97606.75
2019-01-14T01:52:31.713Z,97472.09
2019-01-14T01:55:17.967Z,97648.41
2019-01-14T01:57:58.879Z,97632.05
2019-01-14T02:00:39.885Z,97629.94
2019-01-14T02:03:26.088Z,97644.56
2019-01-14T02:06:06.259Z,97428.62
2019-01-14T02:08:54.386Z,97490.52
2019-01-14T02:11:45.662Z,97431.59
2019-01-14T02:14:32.152Z,97687.30
2019-01-14T02:17:11.845Z,97698.17
2019-01-14T02:19:58.071Z,97693.38
2019-01-14T02:22:38.849Z,97724.06
2019-01-14T02:25:26.051Z,97619.88
2019-01-14T02:28:05.883Z,97718.11
2019-01-14T02:30:52.115Z,97720.58
2019-01-14T02:33:32.202Z,97742.66
2019-01-14T02:36:18.406Z,97743.27
2019-01-14T02:38:58.118Z,97750.89
2019-01-14T02:41:44.334Z,97740.91
2019-01-14T02:44:24.537Z,97530.77
2019-01-14T02:47:04.586Z,97759.84
2019-01-14T02:50:11.955Z,97566.42
2019-01-14T02:52:51.685Z,97625.17
2019-01-14T02:55:37.883Z,97792.74
2019-01-14T02:58:17.137Z,97787.19
2019-01-14T03:01:03.461Z,97587.00
2019-01-14T03:03:43.264Z,97819.39
2019-01-14T03:06:30.054Z,97497.05
2019-01-14T03:09:09.393Z,97825.83
2019-01-14T03:11:55.834Z,97582.44
2019-01-14T03:14:35.471Z,97695.51
2019-01-14T03:17:21.933Z,97838.64
2019-01-14T03:20:03.117Z,97901.87
2019-01-14T03:22:49.617Z,97840.38
2019-01-14T03:25:29.628Z,97634.77
2019-01-14T03:28:16.077Z,97848.38
2019-01-14T03:30:55.615Z,97881.05
2019-01-14T03:33:41.899Z,97858.03
2019-01-14T03:36:22.237Z,97864.77
2019-01-14T03:39:08.713Z,97903.59
2019-01-14T03:41:48.860Z,97894.28
2019-01-14T03:44:35.329Z,97730.91
2019-01-14T03:47:16.308Z,97891.13
2019-01-14T03:50:24.533Z,97896.78
2019-01-14T03:53:04.724Z,97906.16
2019-01-14T03:55:50.920Z,97665.87
2019-01-14T03:58:31.145Z,97843.08
2019-01-14T04:01:18.350Z,97720.93
2019-01-14T04:03:58.915Z,97930.61
2019-01-14T04:06:45.105Z,97700.59
2019-01-14T04:09:24.961Z,97912.56
2019-01-14T04:12:11.448Z,97934.89
2019-01-14T04:14:52.392Z,97870.12
2019-01-14T04:17:38.800Z,97930.17
2019-01-14T04:20:18.537Z,97885.06
2019-01-14T04:23:04.983Z,97723.63
2019-01-14T04:25:44.388Z,97984.16
2019-01-14T04:28:30.865Z,98008.50
2019-01-14T04:31:10.837Z,97907.42
2019-01-14T04:33:57.163Z,97970.03
2019-01-14T04:36:37.293Z,97933.23
2019-01-14T04:39:23.911Z,97924.89
2019-01-14T04:42:03.909Z,97756.03
2019-01-14T04:44:50.436Z,97770.16
2019-01-14T04:47:30.546Z,98045.80
2019-01-14T04:50:38.540Z,98055.44
2019-01-14T04:53:18.185Z,98078.77
2019-01-14T04:55:44.465Z,98066.86
2019-01-14T04:58:24.529Z,98093.52
2019-01-14T05:01:10.721Z,98074.66
2019-01-14T05:03:50.611Z,98058.95
2019-01-14T05:06:16.977Z,98079.38
2019-01-14T05:08:43.278Z,98077.01
2019-01-14T05:11:24.512Z,98085.38
2019-01-14T05:14:10.723Z,98077.72
2019-01-14T05:16:37.318Z,98105.20
2019-01-14T05:19:03.881Z,98081.39
2019-01-14T05:21:30.820Z,98116.88
2019-01-14T05:23:57.509Z,98088.71
2019-01-14T05:26:23.869Z,98121.46
2019-01-14T05:29:05.677Z,98106.74
2019-01-14T05:31:46.247Z,97935.44
2019-01-14T05:34:32.726Z,98129.92
2019-01-14T05:37:12.481Z,98146.80
2019-01-14T05:39:58.786Z,98151.81
2019-01-14T05:42:38.705Z,98167.10
2019-01-14T05:45:25.046Z,98162.27
2019-01-14T05:48:05.871Z,98104.52
2019-01-14T05:50:52.347Z,98181.38
2019-01-14T05:53:31.805Z,98081.69
2019-01-14T05:56:18.017Z,98188.87
2019-01-14T05:58:59.474Z,98047.91
2019-01-14T06:01:45.952Z,98225.16
2019-01-14T06:04:26.492Z,98113.47
2019-01-14T06:07:06.860Z,98007.03
2019-01-14T06:09:53.074Z,98220.30
2019-01-14T06:12:34.081Z,97942.41
2019-01-14T06:15:20.393Z,98244.91
2019-01-14T06:18:00.620Z,98014.84
2019-01-14T06:20:46.860Z,98011.66
2019-01-14T06:23:27.794Z,98275.53
2019-01-14T06:26:07.117Z,98164.31
2019-01-14T06:28:53.323Z,98188.78
2019-01-14T06:31:33.584Z,98274.02
2019-01-14T06:34:14.970Z,98266.45
2019-01-14T06:36:56.305Z,98264.38
2019-01-14T06:39:36.776Z,98212.23
2019-01-14T06:42:23.215Z,98261.02
2019-01-14T06:45:04.993Z,98257.03
2019-01-14T06:47:51.286Z,98030.83
2019-01-14T06:50:31.362Z,98285.69
2019-01-14T06:53:17.560Z,98286.61
2019-01-14T06:55:57.581Z,98286.89
2019-01-14T06:58:43.980Z,98192.20
2019-01-14T07:01:24.792Z,98310.03
2019-01-14T07:04:11.240Z,98141.27
2019-01-14T07:06:51.958Z,98312.59
2019-01-14T07:09:38.200Z,98295.05
2019-01-14T07:12:18.558Z,98219.98
2019-01-14T07:14:58.856Z,98165.41
2019-01-14T07:17:45.297Z,98126.66
2019-01-14T07:20:25.180Z,98116.14
2019-01-14T07:23:11.379Z,98136.14
2019-01-14T07:25:51.142Z,98303.26
2019-01-14T07:28:37.349Z,98315.80
2019-01-14T07:31:17.126Z,98120.23
2019-01-14T07:34:03.402Z,98318.78
2019-01-14T07:36:42.830Z,98317.92
2019-01-14T07:39:29.308Z,98332.98
2019-01-14T07:42:09.261Z,98350.97
2019-01-14T07:44:55.700Z,98358.83
2019-01-14T07:47:35.308Z,98315.09
2019-01-14T07:50:22.801Z,98336.92
2019-01-14T07:53:05.539Z,98161.19
2019-01-14T07:55:52.065Z,98345.49
2019-01-14T07:58:32.349Z,98264.84
2019-01-14T08:01:13.079Z,98336.62
2019-01-14T08:03:59.315Z,98334.67
2019-01-14T08:06:39.496Z,98349.86
2019-01-14T08:09:25.810Z,98363.41
2019-01-14T08:12:05.579Z,98341.67
2019-01-14T08:14:52.108Z,98284.26
2019-01-14T08:17:38.505Z,98367.34
2019-01-14T08:20:18.809Z,98402.20
2019-01-14T08:23:04.985Z,98395.76
2019-01-14T08:25:44.402Z,98314.03
2019-01-14T08:28:30.596Z,98432.27
2019-01-14T08:31:11.577Z,98412.40
2019-01-14T08:33:58.020Z,98447.28
2019-01-14T08:36:37.978Z,98262.33
2019-01-14T08:39:24.190Z,98377.59
2019-01-14T08:42:05.463Z,98471.89
2019-01-14T08:44:52.033Z,98478.23
2019-01-14T08:47:31.667Z,98484.89
2019-01-14T08:50:13.861Z,98477.89
2019-01-14T08:53:00.156Z,98473.81
2019-01-14T08:55:40.567Z,98513.20
2019-01-14T08:58:27.040Z,98504.00
2019-01-14T09:01:07.264Z,98494.44
2019-01-14T09:03:53.457Z,98512.03
2019-01-14T09:06:33.616Z,98510.31
2019-01-14T09:09:19.830Z,98516.79
2019-01-14T09:11:59.797Z,98436.30
2019-01-14T09:14:40.258Z,98504.45
2019-01-14T09:17:26.736Z,98509.27
2019-01-14T09:20:09.279Z,98514.34
2019-01-14T09:22:48.758Z,98418.39
2019-01-14T09:25:29.161Z,98503.20
2019-01-14T09:28:09.406Z,98423.03
2019-01-14T09:30:55.594Z,98519.18
2019-01-14T09:33:35.561Z,98514.12
2019-01-14T09:36:21.766Z,98515.70
2019-01-14T09:39:01.832Z,98532.78
2019-01-14T09:41:50.177Z,98527.58
2019-01-14T09:44:30.094Z,98509.91
2019-01-14T09:47:16.352Z,98511.10
2019-01-14T09:49:56.286Z,98296.69
2019-01-14T09:52:42.541Z,98302.45
2019-01-14T09:55:22.817Z,98387.13
2019-01-14T09:58:09.347Z,98524.50
2019-01-14T10:00:49.856Z,98533.21
2019-01-14T10:03:36.199Z,98337.14
2019-01-14T10:06:16.172Z,98548.38
2019-01-14T10:09:24.280Z,98525.23
2019-01-14T10:12:03.783Z,98535.73
2019-01-14T10:14:50.312Z,98547.91
2019-01-14T10:17:30.516Z,98536.60
2019-01-14T10:20:16.756Z,98534.33
2019-01-14T10:22:56.639Z,98535.96
2019-01-14T10:25:43.240Z,98521.90
2019-01-14T10:28:23.440Z,98529.89
2019-01-14T10:31:09.732Z,98522.99
2019-01-14T10:33:50.130Z,98519.74
2019-01-14T10:36:36.367Z,98288.92
2019-01-14T10:39:17.144Z,98529.26
2019-01-14T10:42:05.011Z,98506.63
2019-01-14T10:45:07.836Z,98525.62
2019-01-14T10:47:35.423Z,98534.81
2019-01-14T10:50:43.676Z,98524.36
2019-01-14T10:53:24.813Z,98526.31
2019-01-14T10:56:04.542Z,98530.32
2019-01-14T10:58:50.730Z,98442.12
2019-01-14T11:01:31.826Z,98551.55
2019-01-14T11:03:58.209Z,98503.84
2019-01-14T11:06:37.714Z,98509.11
2019-01-14T11:09:23.919Z,98358.93
2019-01-14T11:12:05.378Z,98482.48
2019-01-14T11:14:51.543Z,98497.83
2019-01-14T11:17:34.169Z,98511.95
2019-01-14T11:20:42.516Z,98533.29
2019-01-14T11:23:25.287Z,98515.56
2019-01-14T11:26:11.995Z,98512.31
2019-01-14T11:28:52.746Z,98295.23
2019-01-14T11:31:38.942Z,98333.70
2019-01-14T11:34:19.299Z,98345.16
2019-01-14T11:37:05.479Z,98425.41
2019-01-14T11:39:45.725Z,98511.41
2019-01-14T11:42:32.087Z,98240.69
2019-01-14T11:45:12.452Z,98272.98
2019-01-14T11:47:58.746Z,98512.84
2019-01-14T11:50:38.303Z,98541.35
2019-01-14T11:53:18.701Z,98531.28
2019-01-14T11:55:58.577Z,98527.09
2019-01-14T11:58:44.795Z,98551.55
2019-01-14T12:01:24.994Z,98556.73
2019-01-14T12:04:11.220Z,98524.73
2019-01-14T12:06:51.941Z,98524.34
2019-01-14T12:09:38.393Z,98518.98
2019-01-14T12:12:19.820Z,98499.74
2019-01-14T12:15:26.286Z,98519.05
2019-01-14T12:18:05.858Z,98539.06
2019-01-14T12:20:52.129Z,98543.58
2019-01-14T12:23:32.003Z,98428.05
2019-01-14T12:26:18.500Z,98538.05
2019-01-14T12:28:58.334Z,98550.08
2019-01-14T12:31:44.853Z,98576.44
2019-01-14T12:34:25.432Z,98543.74
2019-01-14T12:37:11.891Z,98336.91
2019-01-14T12:39:54.542Z,98412.27
2019-01-14T12:42:41.074Z,98671.50
2019-01-14T12:45:20.492Z,98612.63
2019-01-14T12:48:00.735Z,98604.89
2019-01-14T12:50:47.221Z,98504.08
2019-01-14T12:53:26.923Z,98589.22
2019-01-14T12:56:13.121Z,98603.83
2019-01-14T12:58:52.523Z,98314.09
2019-01-14T13:01:38.794Z,98600.52
2019-01-14T13:04:18.624Z,98368.36
2019-01-14T13:07:05.211Z,98583.23
2019-01-14T13:09:45.020Z,98607.80
2019-01-14T13:12:31.510Z,98457.28
2019-01-14T13:15:12.357Z,98622.67
2019-01-14T13:17:58.868Z,98615.01
2019-01-14T13:20:38.719Z,98606.13
2019-01-14T13:23:25.189Z,98633.22
2019-01-14T13:26:05.268Z,98629.06
2019-01-14T13:28:51.463Z,98508.54
2019-01-14T13:31:31.531Z,98659.30
2019-01-14T13:34:18.033Z,98315.34
2019-01-14T13:36:58.008Z,98672.78
2019-01-14T13:39:37.831Z,98653.19
2019-01-14T13:42:18.278Z,98568.13
2019-01-14T13:45:26.512Z,98647.39
2019-01-14T13:48:06.877Z,98646.66
2019-01-14T13:50:53.074Z,98655.28
2019-01-14T13:53:32.897Z,98655.76
2019-01-14T13:56:19.116Z,98661.67
2019-01-14T13:58:59.099Z,98662.44
2019-01-14T14:01:45.544Z,98683.79
2019-01-14T14:04:25.558Z,98690.08
2019-01-14T14:07:11.773Z,98410.02
2019-01-14T14:09:51.940Z,98707.78
2019-01-14T14:12:38.420Z,98698.30
2019-01-14T14:15:18.618Z,98712.78
2019-01-14T14:18:04.837Z,98750.09
2019-01-14T14:20:44.514Z,98737.81
2019-01-14T14:23:31.124Z,98758.13
2019-01-14T14:26:10.964Z,98748.97
2019-01-14T14:28:57.436Z,98762.23
2019-01-14T14:31:37.304Z,98782.45
2019-01-14T14:34:23.482Z,98750.99
2019-01-14T14:37:03.574Z,98723.43
2019-01-14T14:39:50.011Z,98732.95
2019-01-14T14:42:29.618Z,98504.41
2019-01-14T14:45:10.327Z,98745.03
2019-01-14T14:47:56.776Z,98762.28
2019-01-14T14:50:36.577Z,98752.94
2019-01-14T14:53:22.769Z,98771.32
2019-01-14T14:56:02.763Z,98764.17
2019-01-14T14:58:48.959Z,98759.32
2019-01-14T15:01:29.553Z,98748.23
2019-01-14T15:04:16.648Z,98561.69
2019-01-14T15:06:56.716Z,98755.88
2019-01-14T15:09:43.200Z,98691.84
2019-01-14T15:12:22.807Z,98600.24
2019-01-14T15:18:29.999Z,98744.44
2019-01-14T15:21:10.799Z,98782.35
2019-01-14T15:23:51.795Z,98521.78
2019-01-14T15:26:37.969Z,98774.17
2019-01-14T15:29:17.634Z,98624.14
2019-01-14T15:32:04.137Z,98722.63
2019-01-14T15:34:43.860Z,98792.60
2019-01-14T15:37:24.193Z,98744.78
2019-01-14T15:40:32.197Z,98814.64
2019-01-14T15:43:11.814Z,98734.59
2019-01-14T15:45:52.298Z,98605.50
2019-01-14T15:48:33.270Z,98828.99
2019-01-14T15:51:19.460Z,98858.14
2019-01-14T15:54:00.753Z,98849.41
2019-01-14T15:56:46.973Z,98639.30
2019-01-14T15:59:27.049Z,98890.31
2019-01-14T16:02:13.534Z,98897.50
2019-01-14T16:04:53.299Z,98900.33
2019-01-14T16:07:39.496Z,98902.72
2019-01-14T16:10:20.194Z,98922.50
2019-01-14T16:13:06.891Z,98912.59
2019-01-14T16:15:46.543Z,98747.65
2019-01-14T16:18:26.828Z,98673.31
2019-01-14T16:21:13.374Z,98935.39
2019-01-14T16:23:53.902Z,98952.61
2019-01-14T16:26:40.372Z,98950.56
2019-01-14T16:29:20.496Z,98664.00
2019-01-14T16:32:08.012Z,98972.17
2019-01-14T16:34:55.535Z,98981.76
2019-01-14T16:37:41.846Z,98989.09
2019-01-14T16:40:21.761Z,98811.41
2019-01-14T16:43:04.407Z,98971.20
2019-01-14T16:45:44.806Z,98983.05
2019-01-14T16:48:31.312Z,98890.39
2019-01-14T16:51:10.960Z,99002.31
2019-01-14T16:53:57.538Z,98984.19
2019-01-14T16:56:37.444Z,98931.61
2019-01-14T16:59:24.006Z,99026.28
2019-01-14T17:02:03.715Z,98935.64
2019-01-14T17:04:49.996Z,99033.58
2019-01-14T17:07:31.140Z,98902.55
2019-01-14T17:10:17.645Z,99049.63
2019-01-14T17:12:57.742Z,99064.78
2019-01-14T17:15:44.466Z,98902.92
2019-01-14T17:18:23.785Z,98854.48
2019-01-14T17:21:10.452Z,99058.95
2019-01-14T17:23:50.215Z,99087.25
2019-01-14T17:26:36.895Z,98757.10
2019-01-14T17:29:16.760Z,98760.36
2019-01-14T17:31:56.896Z,99001.64
2019-01-14T17:34:37.156Z,99071.00
2019-01-14T17:37:17.208Z,99096.20
2019-01-14T17:40:32.300Z,99105.17
2019-01-14T17:43:17.937Z,99111.48
2019-01-14T17:46:05.472Z,98963.52
2019-01-14T17:49:05.675Z,99120.58
2019-01-14T17:51:51.971Z,99140.89
2019-01-14T17:54:32.443Z,99123.41
2019-01-14T17:57:19.940Z,99119.97
2019-01-14T18:00:00.452Z,99132.41
2019-01-14T18:02:46.926Z,98832.40
2019-01-14T18:05:26.647Z,99136.30
2019-01-14T18:08:12.847Z,99062.75
2019-01-14T18:10:53.098Z,99133.50
2019-01-14T18:13:39.534Z,99062.48
2019-01-14T18:16:21.834Z,98866.27
2019-01-14T18:19:08.137Z,98950.31
2019-01-14T18:21:48.757Z,99167.74
2019-01-14T18:24:35.279Z,98978.23
2019-01-14T18:27:16.181Z,99171.91
2019-01-14T18:29:56.003Z,99168.45
2019-01-14T18:32:36.523Z,98933.63
2019-01-14T18:35:22.859Z,99114.34
2019-01-14T18:38:02.304Z,98893.86
2019-01-14T18:40:48.720Z,99068.86
2019-01-14T18:43:29.186Z,99042.38
2019-01-14T18:46:09.234Z,99138.06
2019-01-14T18:48:55.636Z,99202.70
2019-01-14T18:51:35.648Z,99222.23
2019-01-14T18:54:22.311Z,99022.09
2019-01-14T18:57:02.755Z,98979.37
2019-01-14T18:59:49.674Z,99198.80
2019-01-14T19:02:29.994Z,99247.57
2019-01-14T19:05:16.353Z,98983.18
2019-01-14T19:07:57.544Z,99252.18
2019-01-14T19:10:43.847Z,98976.42
2019-01-14T19:13:24.062Z,98996.56
2019-01-14T19:16:10.526Z,99251.61
2019-01-14T19:18:52.195Z,98983.64
2019-01-14T19:21:38.671Z,99172.15
2019-01-14T19:24:18.877Z,99103.51
2019-01-14T19:26:59.094Z,99274.64
2019-01-14T19:29:45.569Z,99281.38
2019-01-14T19:32:25.095Z,99143.80
2019-01-14T19:35:11.608Z,99212.71
2019-01-14T19:37:52.426Z,99285.97
2019-01-14T19:40:38.628Z,99020.34
2019-01-14T19:43:19.087Z,99078.02
2019-01-14T19:45:59.440Z,99299.19
2019-01-14T19:48:46.110Z,99295.77
2019-01-14T19:51:25.976Z,99324.13
2019-01-14T19:54:12.205Z,99053.83
2019-01-14T19:56:51.946Z,99233.16
2019-01-14T19:59:38.477Z,99333.16
2019-01-14T20:02:17.972Z,99287.44
2019-01-14T20:08:06.880Z,99167.69
2019-01-14T20:10:47.052Z,99340.78
2019-01-14T20:13:27.708Z,99249.84
2019-01-14T20:16:08.401Z,99345.55
2019-01-14T20:18:55.218Z,99335.73
2019-01-14T20:21:35.272Z,99335.02
2019-01-14T20:24:37.073Z,99162.23
2019-01-14T20:27:10.379Z,99340.05
2019-01-14T20:29:56.862Z,99332.91
2019-01-14T20:32:36.782Z,99358.98
2019-01-14T20:35:23.024Z,99189.30
2019-01-14T20:38:03.274Z,99349.33
2019-01-14T20:40:49.679Z,99366.39
2019-01-14T20:43:30.277Z,99369.19
2019-01-14T20:46:16.774Z,99368.83
2019-01-14T20:48:57.587Z,99205.34
2019-01-14T20:51:43.860Z,99384.33
2019-01-14T20:54:25.638Z,99369.77
2019-01-14T20:57:12.032Z,99279.70
2019-01-14T20:59:52.992Z,99411.09
2019-01-14T21:02:39.495Z,99421.34
2019-01-14T21:05:19.365Z,99406.44
2019-01-14T21:08:05.875Z,99293.44
2019-01-14T21:10:45.909Z,99141.69
2019-01-14T21:13:32.403Z,99435.00
2019-01-14T21:16:12.613Z,99080.23
2019-01-14T21:18:59.949Z,99333.22
2019-01-14T21:21:40.334Z,99394.33
2019-01-14T21:24:26.589Z,99212.30
2019-01-14T21:27:07.071Z,99409.36
2019-01-14T21:29:47.342Z,99244.48
2019-01-14T21:32:28.290Z,99228.70
2019-01-14T21:35:14.884Z,99392.97
2019-01-14T21:37:55.361Z,99390.96
2019-01-14T21:40:41.546Z,99393.91
2019-01-14T21:43:21.403Z,99395.97
2019-01-14T21:46:07.674Z,99402.72
2019-01-14T21:48:48.759Z,99400.41
2019-01-14T21:51:35.219Z,99395.02
2019-01-14T21:54:14.796Z,99149.23
2019-01-14T21:57:01.266Z,99326.83
2019-01-14T21:59:41.168Z,99309.52
2019-01-14T22:02:27.622Z,99280.34
2019-01-14T22:05:07.297Z,99395.16
2019-01-14T22:07:53.864Z,99301.21
2019-01-14T22:10:36.144Z,99404.20
2019-01-14T22:13:22.437Z,99433.60
2019-01-14T22:16:02.305Z,99288.08
2019-01-14T22:18:48.877Z,99141.77
2019-01-14T22:21:31.220Z,99427.96
2019-01-14T22:24:11.470Z,99414.46
2019-01-14T22:26:57.678Z,99140.09
2019-01-14T22:29:37.816Z,99388.80
2019-01-14T22:32:24.269Z,99427.78
2019-01-14T22:35:03.963Z,99414.97
2019-01-14T22:37:50.464Z,99085.27
2019-01-14T22:40:37.484Z,99422.24
2019-01-14T22:43:23.689Z,99417.14
2019-01-14T22:46:03.702Z,99118.39
2019-01-14T22:48:45.032Z,99151.56
2019-01-14T22:51:25.258Z,99257.19
2019-01-14T22:54:05.966Z,99438.92
2019-01-14T22:56:52.695Z,99412.52
2019-01-14T22:59:33.262Z,99429.87
2019-01-14T23:02:19.704Z,99172.48
2019-01-14T23:05:02.403Z,99179.80
2019-01-14T23:07:49.707Z,99236.30
2019-01-14T23:10:29.977Z,99171.95
2019-01-14T23:13:16.193Z,99416.02
2019-01-14T23:15:58.159Z,99170.08
2019-01-14T23:18:44.755Z,99423.78
2019-01-14T23:21:24.890Z,99428.63
2019-01-14T23:24:11.474Z,99172.63
2019-01-14T23:26:50.883Z,99418.48
2019-01-14T23:29:37.116Z,99421.16
2019-01-14T23:32:18.027Z,99413.56
2019-01-14T23:38:06.757Z,99427.59
2019-01-14T23:40:47.314Z,99427.46
2019-01-14T23:43:33.777Z,99433.76
2019-01-14T23:46:16.798Z,99442.06
2019-01-14T23:48:57.692Z,99449.63
2019-01-14T23:51:38.058Z,99415.67
2019-01-14T23:54:24.336Z,99423.06
2019-01-14T23:57:05.044Z,99151.48
2019-01-14T23:59:51.266Z,99406.11
